Time;durP1;ratioP1;P1;durP2;ratioP2;P2;SDS_P1;SDS_P2;PMS_P1;PMS_P2;Temp;Humidity;BMP_temperature;BMP_pressure;BME280_temperature;BME280_humidity;BME280_pressure;Samples;Min_cycle;Max_cycle;Signal;HPM_P1;HPM_P2
2021/03/03 00:00:47;;;;;;;10.32;6.28;;;;;;;8.93;53.26;101730.72;5099405;28;20070;-69
2021/03/03 00:03:12;;;;;;;8.07;6.05;;;;;;;8.90;53.54;101731.38;5099293;28;20031;-69
2021/03/03 00:05:38;;;;;;;7.38;6.63;;;;;;;8.89;53.00;101736.13;5099308;28;20035;-69
2021/03/03 00:08:03;;;;;;;9.52;7.10;;;;;;;8.89;52.87;101736.13;5100110;28;20036;-69
2021/03/03 00:10:29;;;;;;;9.95;7.30;;;;;;;8.96;53.24;101740.41;5100723;28;20035;-69
2021/03/03 00:12:55;;;;;;;9.80;6.82;;;;;;;8.80;53.17;101732.44;5099764;28;20038;-69
2021/03/03 00:15:20;;;;;;;9.27;6.35;;;;;;;8.95;52.98;101738.75;5099653;28;20050;-68
2021/03/03 00:17:46;;;;;;;11.48;5.93;;;;;;;8.97;52.48;101739.25;5099341;28;20045;-69
2021/03/03 00:20:12;;;;;;;6.93;5.60;;;;;;;8.75;53.49;101729.78;5095520;28;20134;-69
2021/03/03 00:22:38;;;;;;;10.30;5.95;;;;;;;8.91;52.84;101733.84;5095735;28;20051;-68
2021/03/03 00:25:10;;;;;;;6.93;5.68;;;;;;;8.79;52.94;101739.13;5095521;28;20451;-69
2021/03/03 00:27:39;;;;;;;6.28;5.68;;;;;;;8.70;52.88;101727.13;5095730;28;20540;-69
2021/03/03 00:30:14;;;;;;;6.97;5.28;;;;;;;8.76;52.61;101736.97;5095409;28;20062;-69
2021/03/03 00:32:40;;;;;;;7.82;5.60;;;;;;;8.59;53.20;101714.63;5095346;28;20036;-69
2021/03/03 00:35:06;;;;;;;6.00;5.38;;;;;;;8.77;53.57;101733.03;5095409;28;20427;-69
2021/03/03 00:37:33;;;;;;;7.72;5.53;;;;;;;8.73;53.32;101726.47;5096224;28;20104;-69
2021/03/03 00:39:58;;;;;;;9.07;6.50;;;;;;;8.64;54.02;101726.41;5095835;28;20126;-69
2021/03/03 00:42:24;;;;;;;9.65;5.80;;;;;;;8.63;54.24;101732.28;5095386;28;20485;-69
2021/03/03 00:44:49;;;;;;;6.30;5.50;;;;;;;8.72;54.63;101729.56;5094856;28;20027;-69
2021/03/03 00:47:15;;;;;;;8.50;6.20;;;;;;;8.73;54.04;101732.03;5095090;28;20038;-69
2021/03/03 00:49:41;;;;;;;6.47;5.75;;;;;;;8.69;54.71;101725.47;5095057;28;20036;-69
2021/03/03 00:52:06;;;;;;;6.72;5.80;;;;;;;8.63;54.35;101726.72;5094557;28;20036;-68
2021/03/03 00:54:32;;;;;;;6.10;5.50;;;;;;;8.56;54.79;101726.31;5094937;28;20036;-69
2021/03/03 00:56:57;;;;;;;6.63;5.70;;;;;;;8.59;54.60;101722.94;5094913;28;20032;-68
2021/03/03 00:59:23;;;;;;;6.47;5.78;;;;;;;8.53;54.81;101721.41;5094878;28;20063;-69
2021/03/03 01:01:48;;;;;;;6.32;5.25;;;;;;;8.43;55.48;101724.41;5094737;28;20024;-68
2021/03/03 01:04:14;;;;;;;7.53;5.80;;;;;;;8.43;55.34;101727.19;5095356;28;20039;-68
2021/03/03 01:06:39;;;;;;;6.72;6.00;;;;;;;8.29;55.84;101716.06;5094982;28;20428;-68
2021/03/03 01:09:05;;;;;;;5.82;5.15;;;;;;;8.40;55.25;101734.16;5094982;28;20032;-69
2021/03/03 01:11:31;;;;;;;6.63;6.00;;;;;;;8.35;55.52;101725.91;5094619;28;20028;-69
2021/03/03 01:13:59;;;;;;;8.93;5.53;;;;;;;8.29;55.44;101719.66;5094579;28;20089;-69
2021/03/03 01:16:25;;;;;;;7.85;6.05;;;;;;;8.34;55.92;101718.72;5094542;28;20535;-69
2021/03/03 01:18:50;;;;;;;7.70;5.93;;;;;;;8.32;55.92;101721.00;5097618;28;20043;-69
2021/03/03 01:21:16;;;;;;;6.05;5.40;;;;;;;8.41;54.96;101721.94;5097752;28;20057;-68
2021/03/03 01:23:41;;;;;;;10.27;6.35;;;;;;;8.36;55.54;101716.50;5097785;28;20467;-68
2021/03/03 01:26:07;;;;;;;9.20;5.47;;;;;;;8.24;56.01;101711.44;5097828;28;20024;-69
2021/03/03 01:28:32;;;;;;;7.00;5.57;;;;;;;8.12;56.15;101711.16;5098225;28;20027;-69
2021/03/03 01:30:58;;;;;;;6.75;5.78;;;;;;;8.08;56.26;101708.16;5097941;28;20023;-69
2021/03/03 01:33:24;;;;;;;7.03;5.63;;;;;;;8.11;55.93;101718.66;5097571;28;20028;-69
2021/03/03 01:35:50;;;;;;;9.20;6.32;;;;;;;8.20;56.32;101717.91;5098125;28;20024;-68
2021/03/03 01:38:15;;;;;;;10.75;6.25;;;;;;;8.19;56.51;101710.75;5098082;28;20046;-68
2021/03/03 01:40:41;;;;;;;9.70;5.93;;;;;;;8.22;55.73;101715.69;5097417;28;20488;-68
2021/03/03 01:43:07;;;;;;;6.95;5.90;;;;;;;8.11;55.58;101709.53;5081045;28;20122;-69
2021/03/03 01:45:32;;;;;;;8.20;5.70;;;;;;;8.10;55.86;101724.53;5097296;28;20462;-69
2021/03/03 01:47:58;;;;;;;5.90;5.38;;;;;;;8.03;56.37;101724.09;5097833;28;20058;-68
2021/03/03 01:50:24;;;;;;;6.68;5.65;;;;;;;8.16;56.00;101717.72;5097333;28;20363;-69
2021/03/03 01:52:49;;;;;;;8.23;6.10;;;;;;;8.10;55.82;101718.97;5097721;28;20027;-68
2021/03/03 01:55:15;;;;;;;7.43;6.03;;;;;;;8.12;55.72;101714.75;5097062;28;20024;-69
2021/03/03 01:57:42;;;;;;;6.57;5.82;;;;;;;7.98;56.24;101721.41;5096490;28;20065;-69
2021/03/03 02:00:08;;;;;;;6.57;5.88;;;;;;;7.95;55.96;101725.66;5097379;28;20136;-69
2021/03/03 02:02:33;;;;;;;6.45;5.78;;;;;;;7.99;56.36;101720.28;5097170;28;20024;-69
2021/03/03 02:04:59;;;;;;;6.50;5.90;;;;;;;7.88;57.03;101722.44;5097222;28;20370;-69
2021/03/03 02:07:25;;;;;;;9.68;6.40;;;;;;;7.93;56.34;101718.75;5096931;28;20028;-69
2021/03/03 02:10:12;;;;;;;7.22;6.53;;;;;;;8.00;56.43;101721.94;5096930;28;20020;-69
2021/03/03 02:12:47;;;;;;;7.72;5.85;;;;;;;7.94;56.92;101721.22;5097670;28;20492;-69
2021/03/03 02:15:14;;;;;;;7.93;6.90;;;;;;;7.90;57.62;101722.97;5097080;28;20039;-68
2021/03/03 02:17:42;;;;;;;9.00;7.10;;;;;;;7.84;57.19;101711.16;5097346;28;20024;-69
2021/03/03 02:20:10;;;;;;;5.90;5.18;;;;;;;7.96;56.98;101720.91;5093085;28;20127;-68
2021/03/03 02:23:13;;;;;;;6.47;5.78;;;;;;;7.90;57.55;101724.94;5093137;28;20020;-69
2021/03/03 02:25:42;;;;;;;6.85;6.07;;;;;;;7.88;57.39;101722.44;5093522;28;20356;-69
2021/03/03 02:28:10;;;;;;;6.40;5.70;;;;;;;7.90;56.97;101722.97;5093232;28;20119;-69
2021/03/03 02:30:41;;;;;;;7.97;6.15;;;;;;;7.82;56.96;101716.19;5093743;28;20027;-69
2021/03/03 02:33:09;;;;;;;5.88;5.28;;;;;;;7.85;57.37;101729.44;5093105;28;20024;-69
2021/03/03 02:35:35;;;;;;;8.05;5.25;;;;;;;7.89;57.04;101729.66;5092805;28;20020;-69
2021/03/03 02:38:04;;;;;;;6.35;5.75;;;;;;;7.85;57.21;101712.81;5093106;28;20520;-69
2021/03/03 02:40:30;;;;;;;8.75;5.15;;;;;;;7.97;57.13;101714.25;5093284;28;20112;-68
2021/03/03 02:42:57;;;;;;;6.38;5.28;;;;;;;7.99;56.63;101715.59;5093445;28;20024;-69
2021/03/03 02:45:25;;;;;;;8.80;6.28;;;;;;;8.05;56.35;101719.06;5092885;28;20074;-69
2021/03/03 02:47:51;;;;;;;7.60;5.20;;;;;;;7.98;56.53;101710.34;5093197;28;20105;-69
2021/03/03 02:50:17;;;;;;;5.65;5.13;;;;;;;7.96;56.60;101720.91;5092836;28;20024;-69
2021/03/03 02:52:53;;;;;;;6.25;5.63;;;;;;;7.91;56.58;101712.69;5092804;28;20077;-69
2021/03/03 02:55:20;;;;;;;8.77;4.95;;;;;;;7.94;56.30;101712.91;5092785;28;20116;-69
2021/03/03 02:57:46;;;;;;;6.03;5.07;;;;;;;7.74;56.97;101700.28;5094030;28;20028;-68
2021/03/03 03:00:16;;;;;;;5.60;5.00;;;;;;;7.75;56.75;101699.16;5092719;28;20032;-69
2021/03/03 03:02:50;;;;;;;5.55;5.05;;;;;;;7.76;57.54;101702.72;5076035;28;20214;-68
2021/03/03 03:05:18;;;;;;;5.10;4.60;;;;;;;7.70;56.63;101699.25;5092671;28;20074;-69
2021/03/03 03:07:49;;;;;;;10.10;5.28;;;;;;;7.78;56.87;101706.03;5092557;28;20119;-68
2021/03/03 03:10:17;;;;;;;5.88;5.25;;;;;;;7.72;56.83;101708.06;5092907;28;20034;-69
2021/03/03 03:12:47;;;;;;;5.90;4.95;;;;;;;7.65;57.02;101713.19;5093416;28;20028;-69
2021/03/03 03:15:15;;;;;;;7.13;5.40;;;;;;;7.72;56.87;101708.06;5092567;28;20466;-68
2021/03/03 03:17:43;;;;;;;6.35;4.85;;;;;;;7.69;56.84;101703.16;5092539;28;20077;-68
2021/03/03 03:20:09;;;;;;;6.15;5.35;;;;;;;7.63;57.23;101715.47;5092413;28;20410;-69
2021/03/03 03:22:35;;;;;;;6.03;5.10;;;;;;;7.56;57.00;101703.94;5092430;28;20105;-69
2021/03/03 03:25:02;;;;;;;7.40;5.45;;;;;;;7.58;57.17;101715.56;5075823;28;20131;-68
2021/03/03 03:27:29;;;;;;;9.50;7.40;;;;;;;7.58;57.29;101713.59;5092478;28;20562;-68
2021/03/03 03:29:58;;;;;;;8.98;7.30;;;;;;;7.59;57.10;101709.69;5092417;28;20059;-69
2021/03/03 03:32:25;;;;;;;7.10;6.40;;;;;;;7.58;56.55;101712.78;5092384;28;20111;-69
2021/03/03 03:34:51;;;;;;;6.18;5.55;;;;;;;7.42;57.45;101698.41;5092707;28;20078;-69
2021/03/03 03:37:18;;;;;;;7.95;5.55;;;;;;;7.49;56.56;101706.28;5092908;28;20066;-68
2021/03/03 03:39:44;;;;;;;6.90;5.60;;;;;;;7.51;56.49;101706.81;5092651;28;20028;-68
2021/03/03 03:42:13;;;;;;;7.93;7.00;;;;;;;7.43;57.03;101693.69;5092620;28;20432;-68
2021/03/03 03:44:40;;;;;;;7.70;6.40;;;;;;;7.50;57.45;101705.97;5092325;28;20035;-68
2021/03/03 03:47:07;;;;;;;7.65;5.65;;;;;;;7.36;56.74;101702.38;5093442;28;20032;-69
2021/03/03 03:49:33;;;;;;;7.63;5.47;;;;;;;7.40;56.65;101708.13;5092581;28;20039;-69
2021/03/03 03:51:58;;;;;;;6.20;5.60;;;;;;;7.28;56.64;101708.59;5075616;28;20039;-69
2021/03/03 03:54:24;;;;;;;5.30;4.80;;;;;;;7.34;56.52;101710.97;5092201;28;20029;-69
2021/03/03 03:56:49;;;;;;;7.15;5.25;;;;;;;7.26;57.09;101703.38;5092177;28;20039;-69
2021/03/03 03:59:15;;;;;;;7.15;5.93;;;;;;;7.28;57.83;101709.41;5092171;28;20024;-68
2021/03/03 04:01:41;;;;;;;6.68;5.55;;;;;;;7.15;58.13;101693.63;5092050;28;20114;-69
2021/03/03 04:04:08;;;;;;;10.73;6.68;;;;;;;7.29;57.34;101704.72;5092119;28;20032;-68
2021/03/03 04:06:36;;;;;;;6.25;4.78;;;;;;;7.30;56.67;101707.19;5092060;28;20067;-69
2021/03/03 04:09:01;;;;;;;6.18;4.90;;;;;;;7.25;56.81;101701.75;5092331;28;20447;-68
2021/03/03 04:11:27;;;;;;;5.20;4.70;;;;;;;7.27;55.89;101705.03;5092045;28;20055;-68
2021/03/03 04:13:52;;;;;;;4.93;4.03;;;;;;;7.25;54.98;101707.28;5092309;28;20032;-69
2021/03/03 04:16:18;;;;;;;4.90;4.38;;;;;;;7.21;55.46;101705.41;5092600;28;20458;-68
2021/03/03 04:18:44;;;;;;;4.45;3.80;;;;;;;7.30;54.21;101717.44;5094337;28;20382;-69
2021/03/03 04:21:09;;;;;;;4.18;3.85;;;;;;;7.20;53.78;101712.91;5099053;28;20027;-68
2021/03/03 04:23:35;;;;;;;4.95;4.13;;;;;;;7.23;55.08;101717.81;5099559;28;20036;-69
2021/03/03 04:26:04;;;;;;;4.82;4.30;;;;;;;7.27;54.45;101718.03;5098542;28;20622;-68
2021/03/03 04:28:29;;;;;;;6.32;4.90;;;;;;;7.21;53.40;101725.63;5099143;28;20362;-68
2021/03/03 04:30:55;;;;;;;5.05;4.53;;;;;;;7.21;53.78;101724.78;5098772;28;20042;-68
2021/03/03 04:33:20;;;;;;;5.70;5.03;;;;;;;7.18;53.33;101726.22;5098470;28;20039;-69
2021/03/03 04:35:46;;;;;;;6.47;4.55;;;;;;;7.14;53.74;101730.72;5098765;28;20031;-68
2021/03/03 04:38:12;;;;;;;5.53;4.88;;;;;;;7.07;54.33;101728.31;5098596;28;20130;-68
2021/03/03 04:40:37;;;;;;;6.22;4.75;;;;;;;7.14;53.96;101740.94;5098869;28;20027;-69
2021/03/03 04:43:06;;;;;;;6.60;5.90;;;;;;;7.01;54.89;101740.59;5098517;28;20078;-69
2021/03/03 04:45:31;;;;;;;12.02;5.55;;;;;;;6.95;54.33;101741.00;5098527;28;20555;-68
2021/03/03 04:47:57;;;;;;;7.32;6.22;;;;;;;6.93;54.94;101746.00;5098813;28;20044;-69
2021/03/03 04:50:23;;;;;;;7.90;6.85;;;;;;;6.93;54.26;101741.31;5098462;28;20057;-69
2021/03/03 04:52:48;;;;;;;11.80;6.88;;;;;;;6.90;54.77;101735.53;5098417;28;20027;-68
2021/03/03 04:55:14;;;;;;;8.18;6.60;;;;;;;6.83;55.06;101742.28;5098320;28;20032;-68
2021/03/03 04:57:40;;;;;;;7.38;5.93;;;;;;;6.85;54.25;101738.38;5098599;28;20127;-68
2021/03/03 05:00:06;;;;;;;5.18;4.68;;;;;;;6.78;53.84;101744.28;5098235;28;20390;-69
2021/03/03 05:02:32;;;;;;;5.85;4.47;;;;;;;6.74;54.32;101743.25;5098159;28;20034;-68
2021/03/03 05:04:57;;;;;;;9.00;5.15;;;;;;;6.74;54.75;101743.25;5098221;28;20031;-68
2021/03/03 05:07:24;;;;;;;7.05;4.82;;;;;;;6.74;54.74;101743.25;5098160;28;20035;-69
2021/03/03 05:09:50;;;;;;;6.25;4.80;;;;;;;6.71;55.34;101750.22;5098132;28;20026;-69
2021/03/03 05:12:16;;;;;;;5.22;4.70;;;;;;;6.70;54.96;101747.72;5098308;28;20032;-68
2021/03/03 05:14:41;;;;;;;7.88;5.60;;;;;;;6.73;55.70;101747.94;5098554;28;20027;-69
2021/03/03 05:17:07;;;;;;;9.57;5.50;;;;;;;6.73;53.72;101731.34;5097908;28;20474;-68
2021/03/03 05:19:33;;;;;;;7.90;4.55;;;;;;;6.76;53.73;101752.88;5094517;28;20124;-68
2021/03/03 05:21:58;;;;;;;6.72;4.82;;;;;;;6.70;53.79;101743.00;5094519;28;20489;-68
2021/03/03 05:24:24;;;;;;;4.68;4.20;;;;;;;6.67;53.52;101746.38;5094534;28;20032;-68
2021/03/03 05:26:50;;;;;;;4.90;4.35;;;;;;;6.68;53.57;101747.22;5094968;28;20039;-69
2021/03/03 05:29:15;;;;;;;3.80;3.40;;;;;;;6.68;53.54;101744.44;5094720;28;20060;-69
2021/03/03 05:31:41;;;;;;;4.20;3.80;;;;;;;6.63;53.64;101753.63;5093552;28;20050;-68
2021/03/03 05:34:06;;;;;;;4.63;3.65;;;;;;;6.65;53.41;101748.59;5094331;28;20066;-67
2021/03/03 05:36:34;;;;;;;6.95;4.22;;;;;;;6.77;53.18;101756.50;5094821;28;20039;-68
2021/03/03 05:39:00;;;;;;;5.30;4.43;;;;;;;6.58;52.83;101726.03;5094162;28;20036;-67
2021/03/03 05:41:26;;;;;;;6.82;4.10;;;;;;;6.78;53.05;101758.94;5093954;28;20039;-69
2021/03/03 05:43:53;;;;;;;6.00;4.25;;;;;;;6.83;53.61;101758.88;5094556;28;20107;-69
2021/03/03 05:46:19;;;;;;;4.25;3.85;;;;;;;7.50;51.75;101766.09;5094281;28;20036;-68
2021/03/03 05:49:01;;;;;;;7.47;4.45;;;;;;;8.17;49.53;101758.19;5094189;28;20553;-69
2021/03/03 05:51:27;;;;;;;4.45;4.05;;;;;;;8.81;47.49;101755.44;5093561;28;20028;-68
2021/03/03 05:53:54;;;;;;;5.50;4.40;;;;;;;9.43;45.97;101756.44;5094365;28;20370;-69
2021/03/03 05:56:22;;;;;;;4.75;3.92;;;;;;;10.08;44.30;101754.97;5077377;28;20122;-69
2021/03/03 05:58:48;;;;;;;5.35;3.58;;;;;;;10.59;43.07;101764.63;5094361;28;20371;-68
2021/03/03 06:01:14;;;;;;;5.45;4.68;;;;;;;11.10;40.88;101767.78;5093877;28;20032;-68
2021/03/03 06:03:40;;;;;;;6.95;4.88;;;;;;;11.66;40.40;101768.69;5093647;28;20031;-68
2021/03/03 06:06:06;;;;;;;8.63;4.95;;;;;;;12.18;38.72;101762.97;5094143;28;20344;-69
2021/03/03 06:08:32;;;;;;;7.75;5.38;;;;;;;12.75;37.60;101756.91;5094150;28;20047;-69
2021/03/03 06:11:02;;;;;;;10.23;6.15;;;;;;;13.41;36.67;101765.38;5093566;28;20467;-69
2021/03/03 06:13:28;;;;;;;6.70;4.75;;;;;;;13.98;35.38;101769.41;5094317;28;20173;-69
2021/03/03 06:15:54;;;;;;;7.00;5.22;;;;;;;14.47;34.32;101767.47;5092500;28;20495;-68
2021/03/03 06:18:22;;;;;;;6.60;4.97;;;;;;;15.04;33.50;101780.44;5094023;28;20043;-69
2021/03/03 06:20:51;;;;;;;7.40;4.43;;;;;;;15.57;32.52;101775.56;5093207;28;20194;-69
2021/03/03 06:23:23;;;;;;;9.23;4.07;;;;;;;16.03;31.64;101776.00;5093224;28;20020;-69
2021/03/03 06:25:58;;;;;;;5.28;4.40;;;;;;;16.45;30.84;101784.69;5093220;28;20032;-69
2021/03/03 06:28:33;;;;;;;5.38;3.90;;;;;;;16.88;29.70;101788.53;5093916;28;20077;-69
2021/03/03 06:30:59;;;;;;;9.93;4.72;;;;;;;17.27;29.21;101789.41;5092923;28;20028;-69
2021/03/03 06:33:26;;;;;;;5.50;4.53;;;;;;;17.50;28.75;101788.66;5092866;28;20031;-69
2021/03/03 06:35:52;;;;;;;6.50;4.70;;;;;;;17.74;28.49;101791.19;5092969;28;20394;-69
2021/03/03 06:38:29;;;;;;;11.40;5.40;;;;;;;18.10;28.04;101786.19;5092684;28;20542;-69
2021/03/03 06:41:07;;;;;;;6.32;5.03;;;;;;;18.52;27.62;101791.72;5093297;28;20028;-69
2021/03/03 06:43:33;;;;;;;10.15;6.30;;;;;;;18.88;27.18;101802.75;5092884;28;20085;-69
2021/03/03 06:46:17;;;;;;;7.43;5.97;;;;;;;18.99;26.70;101789.63;5092761;28;20466;-70
2021/03/03 06:48:44;;;;;;;7.32;6.63;;;;;;;19.44;26.74;101801.88;5093171;28;20055;-69
2021/03/03 06:51:33;;;;;;;9.38;7.53;;;;;;;19.57;26.70;101800.44;5092851;28;20104;-67
2021/03/03 06:54:04;;;;;;;9.93;6.03;;;;;;;19.64;26.73;101794.91;5093239;28;20069;-67
2021/03/03 06:56:40;;;;;;;10.68;6.70;;;;;;;19.51;26.93;101779.41;5092544;28;20043;-68
2021/03/03 06:59:32;;;;;;;8.35;6.18;;;;;;;19.84;26.49;101801.16;5093024;28;20489;-68
2021/03/03 07:02:07;;;;;;;5.78;5.25;;;;;;;20.01;26.34;101802.53;5094303;28;20426;-68
2021/03/03 07:04:35;;;;;;;7.15;6.45;;;;;;;20.26;25.76;101797.13;5092456;28;20055;-68
2021/03/03 07:07:10;;;;;;;9.32;6.05;;;;;;;20.47;25.32;101790.88;5092307;28;20024;-67
2021/03/03 07:09:58;;;;;;;7.00;6.15;;;;;;;19.98;24.74;101800.53;5092853;28;20405;-67
2021/03/03 07:12:27;;;;;;;5.47;4.97;;;;;;;20.18;25.23;101807.53;5093333;28;20031;-67
2021/03/03 07:15:14;;;;;;;6.70;5.45;;;;;;;20.54;23.96;101796.56;5092204;28;20031;-67
2021/03/03 07:17:46;;;;;;;8.65;5.60;;;;;;;20.20;23.88;101793.84;5092383;28;20035;-68
2021/03/03 07:20:16;;;;;;;5.65;5.07;;;;;;;20.84;23.31;101794.38;5091781;28;20044;-68
2021/03/03 07:22:53;;;;;;;8.43;5.38;;;;;;;20.99;23.56;101797.28;5092168;28;20028;-68
2021/03/03 07:25:20;;;;;;;5.28;4.40;;;;;;;20.77;22.70;101796.31;5091988;28;20024;-68
2021/03/03 07:27:48;;;;;;;4.25;3.85;;;;;;;21.09;22.51;101790.84;5092134;28;20017;-68
2021/03/03 07:30:14;;;;;;;4.80;4.15;;;;;;;20.28;22.10;101795.53;5092884;28;20063;-68
2021/03/03 07:32:40;;;;;;;4.95;4.25;;;;;;;21.23;21.96;101795.78;5092571;28;20134;-68
2021/03/03 07:35:07;;;;;;;3.67;3.25;;;;;;;20.71;19.88;101798.72;5092395;28;20035;-68
2021/03/03 07:37:35;;;;;;;3.30;3.00;;;;;;;21.14;20.29;101796.13;5092535;28;20382;-68
2021/03/03 07:40:17;;;;;;;5.82;3.50;;;;;;;20.96;20.99;101781.91;5091647;28;20028;-68
2021/03/03 07:42:52;;;;;;;107.53;17.00;;;;;;;20.97;21.54;101796.88;5091783;28;20036;-67
2021/03/03 07:45:19;;;;;;;39.40;10.80;;;;;;;21.24;22.20;101800.22;5092444;28;20065;-68
2021/03/03 07:47:45;;;;;;;5.32;4.18;;;;;;;21.22;22.17;101800.63;5092106;28;20119;-68
2021/03/03 07:50:18;;;;;;;4.40;3.83;;;;;;;21.58;21.55;101803.66;5092277;28;20029;-68
2021/03/03 07:52:45;;;;;;;6.95;4.35;;;;;;;21.84;20.95;101789.16;5092231;28;20033;-68
2021/03/03 07:55:11;;;;;;;5.47;4.20;;;;;;;21.85;20.58;101795.63;5094821;28;20083;-68
2021/03/03 07:57:44;;;;;;;5.78;3.97;;;;;;;21.62;21.80;101793.94;5095804;28;20492;-68
2021/03/03 08:00:19;;;;;;;5.57;4.05;;;;;;;21.84;20.48;101789.16;5095541;28;20043;-68
2021/03/03 08:02:49;;;;;;;4.35;3.90;;;;;;;22.19;20.72;101784.75;5095438;28;20024;-67
2021/03/03 08:05:38;;;;;;;4.15;3.67;;;;;;;22.33;20.58;101781.94;5096322;28;20025;-68
2021/03/03 08:08:10;;;;;;;46.88;9.68;;;;;;;22.31;20.07;101780.72;5095685;28;20107;-68
2021/03/03 08:10:44;;;;;;;12.20;5.07;;;;;;;21.29;20.64;101782.88;5095746;28;20470;-68
2021/03/03 08:13:14;;;;;;;;;;;;;;;21.65;20.93;101790.31;5095909;28;20024;-68
2021/03/03 08:15:48;;;;;;;13.10;7.82;;;;;;;20.94;21.12;101784.34;5078743;28;19912;-68
2021/03/03 08:18:13;;;;;;;10.10;5.55;;;;;;;21.54;21.01;101785.84;5095363;28;20036;-68
2021/03/03 08:20:45;;;;;;;7.97;6.43;;;;;;;21.84;21.05;101780.66;5095074;28;20059;-68
2021/03/03 08:23:11;;;;;;;27.42;10.32;;;;;;;21.18;20.79;101777.16;5095006;28;20055;-68
2021/03/03 08:25:48;;;;;;;7.93;5.97;;;;;;;19.88;21.43;101776.59;5095159;28;20093;-68
2021/03/03 08:28:32;;;;;;;6.80;4.40;;;;;;;20.18;21.16;101767.97;5095365;28;20036;-68
2021/03/03 08:31:06;;;;;;;;;;;;;;;20.47;21.56;101774.72;5095453;28;20032;-68
2021/03/03 08:33:40;;;;;;;4.30;3.30;;;;;;;21.04;21.24;101769.44;5095276;28;19919;-68
2021/03/03 08:36:11;;;;;;;5.72;4.15;;;;;;;20.26;21.53;101775.34;5095113;28;20477;-68
2021/03/03 08:38:39;;;;;;;5.03;4.10;;;;;;;21.12;21.04;101782.41;5095444;28;20074;-68
2021/03/03 08:41:14;;;;;;;4.57;3.70;;;;;;;21.28;20.43;101773.56;5094315;28;20059;-68
2021/03/03 08:43:41;;;;;;;6.40;3.28;;;;;;;21.72;20.17;101769.69;5094781;28;20032;-68
2021/03/03 08:46:25;;;;;;;4.72;4.22;;;;;;;21.92;20.05;101785.09;5094811;28;20024;-68
2021/03/03 08:48:53;;;;;;;;;;;;;;;20.64;20.67;101779.69;5095255;28;20028;-68
2021/03/03 08:51:38;;;;;;;8.35;4.85;;;;;;;21.30;20.76;101788.16;5095523;28;20281;-68
2021/03/03 08:54:09;;;;;;;7.93;5.18;;;;;;;20.26;21.01;101783.81;5094487;28;20020;-68
2021/03/03 08:56:48;;;;;;;5.72;4.30;;;;;;;20.70;20.99;101780.13;5094925;28;20374;-69
2021/03/03 08:59:40;;;;;;;6.53;5.35;;;;;;;20.95;21.21;101776.66;5094529;28;20463;-68
2021/03/03 09:02:15;;;;;;;5.68;5.10;;;;;;;21.32;20.83;101780.09;5094205;28;20077;-68
2021/03/03 09:04:43;;;;;;;8.82;4.40;;;;;;;20.81;20.22;101778.19;5095066;28;20078;-68
2021/03/03 09:07:23;;;;;;;5.05;4.55;;;;;;;20.58;20.73;101774.81;5094776;28;20070;-68
2021/03/03 09:09:56;;;;;;;6.20;4.40;;;;;;;20.59;21.00;101776.41;5094310;28;20037;-67
2021/03/03 09:12:30;;;;;;;5.70;4.93;;;;;;;20.58;21.30;101774.81;5094800;28;20036;-67
2021/03/03 09:14:58;;;;;;;5.25;4.75;;;;;;;19.87;21.69;101772.16;5095436;28;20024;-70
2021/03/03 09:17:27;;;;;;;7.18;6.47;;;;;;;20.56;21.75;101777.19;5077628;28;20036;-70
2021/03/03 09:19:54;;;;;;;5.63;4.82;;;;;;;19.72;22.16;101768.38;5094531;28;20506;-68
2021/03/03 09:22:19;;;;;;;6.88;6.07;;;;;;;20.79;21.45;101766.47;5093925;28;20028;-68
2021/03/03 09:24:46;;;;;;;4.60;4.20;;;;;;;20.60;20.33;101769.56;5094112;28;20028;-68
2021/03/03 09:27:12;;;;;;;5.63;5.00;;;;;;;20.49;20.95;101765.84;5094075;28;20032;-68
2021/03/03 09:29:40;;;;;;;7.72;4.70;;;;;;;19.44;21.53;101765.19;5093994;28;20051;-68
2021/03/03 09:32:11;;;;;;;7.97;5.00;;;;;;;19.87;21.58;101767.31;5094519;28;20494;-68
2021/03/03 09:34:48;;;;;;;5.97;5.25;;;;;;;20.30;21.78;101770.53;5077120;28;20036;-68
2021/03/03 09:37:14;;;;;;;12.68;8.13;;;;;;;21.22;20.46;101765.88;5094684;28;20130;-68
2021/03/03 09:39:40;;;;;;;7.35;4.50;;;;;;;21.64;20.11;101768.88;5093165;28;20036;-68
2021/03/03 09:42:08;;;;;;;6.47;5.88;;;;;;;21.27;20.20;101766.28;5093530;28;20434;-68
2021/03/03 09:44:51;;;;;;;7.30;4.45;;;;;;;22.13;19.78;101766.53;5093315;28;20035;-69
2021/03/03 09:47:22;;;;;;;5.05;4.18;;;;;;;21.51;18.99;101766.81;5094487;28;20107;-68
2021/03/03 09:49:47;;;;;;;8.95;4.03;;;;;;;20.35;20.32;101753.22;5093380;28;20078;-68
2021/03/03 09:52:13;;;;;;;27.05;5.53;;;;;;;20.36;19.82;101759.66;5093704;28;20023;-68
2021/03/03 09:54:41;;;;;;;7.07;3.67;;;;;;;21.49;19.09;101757.91;5093786;28;20386;-68
2021/03/03 09:57:20;;;;;;;4.82;3.53;;;;;;;21.44;18.30;101759.91;5094047;28;20085;-68
2021/03/03 09:59:47;;;;;;;5.03;3.42;;;;;;;22.30;17.28;101760.06;5093286;28;20069;-68
2021/03/03 10:02:17;;;;;;;3.67;3.38;;;;;;;23.01;16.69;101756.31;5093290;28;20119;-68
2021/03/03 10:04:45;;;;;;;3.60;3.03;;;;;;;23.20;16.24;101746.50;5093876;28;20135;-68
2021/03/03 10:07:15;;;;;;;4.35;3.92;;;;;;;23.42;16.27;101758.56;5093314;28;20048;-69
2021/03/03 10:09:43;;;;;;;7.40;2.80;;;;;;;23.36;14.63;101752.50;5076615;28;20462;-69
2021/03/03 10:12:11;;;;;;;3.13;2.75;;;;;;;21.69;16.07;101759.97;5093829;28;20036;-68
2021/03/03 10:14:56;;;;;;;8.10;6.47;;;;;;;21.83;17.03;101755.53;5093458;28;20580;-68
2021/03/03 10:17:32;;;;;;;3.97;3.58;;;;;;;21.96;17.40;101751.13;5092380;28;20114;-68
2021/03/03 10:19:59;;;;;;;5.28;4.20;;;;;;;22.04;17.09;101749.09;5092660;28;20056;-68
2021/03/03 10:22:25;;;;;;;4.85;4.32;;;;;;;21.88;17.72;101740.97;5093489;28;20020;-68
2021/03/03 10:24:56;;;;;;;7.78;4.53;;;;;;;22.03;17.60;101748.28;5092923;28;20363;-68
2021/03/03 10:27:21;;;;;;;6.93;4.10;;;;;;;21.70;17.48;101747.44;5092917;28;20160;-68
2021/03/03 10:29:47;;;;;;;5.25;3.85;;;;;;;21.85;17.52;101742.59;5092858;28;20119;-69
2021/03/03 10:32:14;;;;;;;5.05;4.53;;;;;;;20.57;18.62;101742.09;5093292;28;20032;-68
2021/03/03 10:34:41;;;;;;;6.82;4.43;;;;;;;21.08;18.38;101746.78;5076016;28;20028;-68
2021/03/03 10:37:07;;;;;;;4.85;3.65;;;;;;;21.33;18.63;101742.06;5093297;28;20371;-68
2021/03/03 10:39:35;;;;;;;5.47;4.60;;;;;;;21.58;20.32;101735.69;5092671;28;20031;-68
2021/03/03 10:42:05;;;;;;;6.05;4.43;;;;;;;22.20;20.48;101726.84;5092845;28;20123;-67
2021/03/03 10:44:41;;;;;;;8.00;4.60;;;;;;;22.87;19.83;101727.94;5092875;28;20533;-68
2021/03/03 10:47:08;;;;;;;6.95;4.82;;;;;;;22.49;20.46;101733.31;5092642;28;20028;-68
2021/03/03 10:49:38;;;;;;;6.60;3.90;;;;;;;22.37;19.85;101723.22;5092431;28;20024;-68
2021/03/03 10:52:24;;;;;;;7.07;4.72;;;;;;;22.44;20.18;101725.22;5092163;28;20047;-68
2021/03/03 10:54:50;;;;;;;7.43;4.18;;;;;;;22.79;19.47;101726.34;5091895;28;20040;-68
2021/03/03 10:57:15;;;;;;;10.90;5.38;;;;;;;21.77;19.88;101732.47;5092374;28;20101;-68
2021/03/03 10:59:41;;;;;;;4.55;4.15;;;;;;;22.12;19.33;101719.56;5092229;28;20028;-68
2021/03/03 11:02:11;;;;;;;3.85;3.50;;;;;;;21.50;19.74;101719.88;5092684;28;20024;-68
2021/03/03 11:04:44;;;;;;;4.05;3.75;;;;;;;21.56;19.46;101721.09;5093230;28;20028;-68
2021/03/03 11:07:11;;;;;;;4.80;3.55;;;;;;;20.66;20.80;101719.91;5093145;28;20032;-71
2021/03/03 11:09:37;;;;;;;4.40;3.72;;;;;;;20.54;20.84;101703.28;5075802;28;20036;-69
2021/03/03 11:12:04;;;;;;;6.47;4.85;;;;;;;21.64;20.31;101705.75;5092222;28;20060;-72
2021/03/03 11:14:30;;;;;;;6.32;3.80;;;;;;;21.24;20.30;101709.66;5092293;28;20062;-75
2021/03/03 11:16:57;;;;;;;3.80;3.50;;;;;;;21.67;19.87;101719.09;5092700;28;20466;-72
2021/03/03 11:19:24;;;;;;;5.22;3.45;;;;;;;21.87;19.78;101714.66;5091873;28;20059;-72
2021/03/03 11:21:51;;;;;;;4.90;3.53;;;;;;;21.58;19.50;101713.84;5093666;28;20030;-74
2021/03/03 11:24:17;;;;;;;5.47;4.45;;;;;;;20.88;20.66;101709.53;5093708;28;20056;-73
2021/03/03 11:26:44;;;;;;;4.28;3.40;;;;;;;20.51;20.84;101706.91;5091991;28;20078;-71
2021/03/03 11:29:10;;;;;;;3.55;3.25;;;;;;;20.12;21.20;101708.19;5092656;28;20031;-70
2021/03/03 11:31:36;;;;;;;3.42;3.13;;;;;;;19.91;20.71;101702.38;5098061;28;20032;-71
2021/03/03 11:34:02;;;;;;;6.22;3.33;;;;;;;20.53;20.55;101704.47;5079549;28;20478;-70
2021/03/03 11:36:29;;;;;;;3.97;3.55;;;;;;;20.95;20.74;101697.44;5079580;28;20122;-72